createdAt,value
2018-09-12T00:00:34.271Z,0
2018-09-12T00:01:14.678Z,0
2018-09-12T00:01:55.070Z,0
2018-09-12T00:02:35.461Z,0
2018-09-12T00:03:15.891Z,0
2018-09-12T00:03:56.330Z,0
2018-09-12T00:04:36.732Z,0
2018-09-12T00:05:17.101Z,0
2018-09-12T00:05:57.504Z,0
2018-09-12T00:06:37.911Z,0
2018-09-12T00:07:18.334Z,0
2018-09-12T00:07:58.703Z,0
2018-09-12T00:08:39.098Z,0
2018-09-12T00:09:19.488Z,0
2018-09-12T00:09:59.861Z,0
2018-09-12T00:10:40.303Z,0
2018-09-12T00:15:16.615Z,0
2018-09-12T00:15:56.055Z,0
2018-09-12T00:16:36.480Z,0
2018-09-12T00:17:16.892Z,0
2018-09-12T00:17:57.297Z,0
2018-09-12T00:23:42.755Z,0
2018-09-12T00:24:23.225Z,0
2018-09-12T00:25:03.567Z,0
2018-09-12T00:25:43.991Z,0
2018-09-12T00:26:24.389Z,0
2018-09-12T00:27:04.769Z,0
2018-09-12T00:27:47.807Z,0
2018-09-12T00:28:28.209Z,0
2018-09-12T00:29:08.612Z,0
2018-09-12T00:29:49.020Z,0
2018-09-12T00:30:29.460Z,0
2018-09-12T00:31:09.831Z,0
2018-09-12T00:31:50.239Z,0
2018-09-12T00:32:30.622Z,0
2018-09-12T00:33:11.041Z,0
2018-09-12T00:33:51.446Z,0
2018-09-12T00:34:31.875Z,0
2018-09-12T00:35:12.298Z,0
2018-09-12T00:35:52.699Z,0
2018-09-12T00:36:33.112Z,0
2018-09-12T00:37:13.529Z,0
2018-09-12T00:37:53.985Z,0
2018-09-12T00:38:34.425Z,0
2018-09-12T00:39:14.819Z,0
2018-09-12T00:39:55.184Z,0
2018-09-12T00:40:35.614Z,0
2018-09-12T00:41:15.998Z,0
2018-09-12T00:41:56.447Z,0
2018-09-12T00:42:36.832Z,0
2018-09-12T00:43:17.226Z,0
2018-09-12T00:43:57.632Z,0
2018-09-12T00:44:38.030Z,0
2018-09-12T00:45:18.469Z,0
2018-09-12T00:45:58.895Z,0
2018-09-12T00:46:39.308Z,0
2018-09-12T00:47:19.708Z,0
2018-09-12T00:48:00.118Z,0
2018-09-12T00:48:40.535Z,0
2018-09-12T00:56:26.244Z,0
2018-09-12T00:57:06.617Z,0
2018-09-12T00:57:47.030Z,0
2018-09-12T00:58:27.438Z,0
2018-09-12T00:59:07.829Z,0
2018-09-12T00:59:48.211Z,0
2018-09-12T01:00:28.614Z,0
2018-09-12T01:01:09.021Z,0
2018-09-12T01:01:49.444Z,0
2018-09-12T01:02:29.838Z,0
2018-09-12T01:03:10.212Z,0
2018-09-12T01:03:50.653Z,0
2018-09-12T01:04:31.062Z,0
2018-09-12T01:05:11.447Z,0
2018-09-12T01:05:51.920Z,0
2018-09-12T01:06:32.286Z,0
2018-09-12T01:07:12.694Z,0
2018-09-12T01:07:53.117Z,0
2018-09-12T01:08:33.583Z,0
2018-09-12T01:09:13.965Z,0
2018-09-12T01:09:54.463Z,0
2018-09-12T01:10:34.772Z,0
2018-09-12T01:11:15.213Z,0
2018-09-12T01:11:55.591Z,0
2018-09-12T01:12:36.095Z,0
2018-09-12T01:13:16.430Z,0
2018-09-12T01:13:56.822Z,0
2018-09-12T01:14:37.289Z,0
2018-09-12T01:15:17.629Z,0
2018-09-12T01:15:58.064Z,0
2018-09-12T01:16:38.501Z,0
2018-09-12T01:17:18.872Z,0
2018-09-12T01:17:59.300Z,0
2018-09-12T01:18:39.717Z,0
2018-09-12T01:19:20.117Z,0
2018-09-12T01:20:00.569Z,0
2018-09-12T01:20:40.968Z,0
2018-09-12T01:21:21.300Z,0
2018-09-12T01:22:01.683Z,0
2018-09-12T01:22:42.094Z,0
2018-09-12T01:23:22.540Z,0
2018-09-12T01:24:02.900Z,0
2018-09-12T01:24:43.291Z,0
2018-09-12T01:25:23.702Z,0
2018-09-12T01:26:04.097Z,0
2018-09-12T01:26:44.535Z,0
2018-09-12T01:27:24.916Z,0
2018-09-12T01:28:05.316Z,0
2018-09-12T01:28:45.746Z,0
2018-09-12T01:29:26.175Z,0
2018-09-12T01:30:06.594Z,0
2018-09-12T01:30:46.983Z,0
2018-09-12T01:31:27.383Z,0
2018-09-12T01:32:07.829Z,0
2018-09-12T01:32:48.237Z,0
2018-09-12T01:33:28.591Z,0
2018-09-12T01:47:14.989Z,0
2018-09-12T01:47:55.383Z,0
2018-09-12T01:48:35.777Z,0
2018-09-12T01:49:16.232Z,0
2018-09-12T01:49:56.574Z,0
2018-09-12T01:50:36.988Z,0
2018-09-12T01:51:17.413Z,0
2018-09-12T01:51:57.813Z,0
2018-09-12T01:52:38.206Z,0
2018-09-12T01:53:18.589Z,0
2018-09-12T01:53:59.059Z,0
2018-09-12T01:54:39.436Z,0
2018-09-12T01:55:19.834Z,0
2018-09-12T01:56:00.242Z,0
2018-09-12T01:56:40.658Z,0
2018-09-12T01:57:21.045Z,0
2018-09-12T01:58:01.445Z,0
2018-09-12T01:58:41.869Z,0
2018-09-12T01:59:22.299Z,0
2018-09-12T02:12:00.487Z,0
2018-09-12T02:12:40.902Z,0
2018-09-12T02:16:32.654Z,0
2018-09-12T02:17:13.116Z,0
2018-09-12T02:17:53.454Z,0
2018-09-12T02:18:33.910Z,0
2018-09-12T02:19:14.263Z,0
2018-09-12T02:19:54.666Z,0
2018-09-12T02:20:35.064Z,0
2018-09-12T02:21:15.493Z,0
2018-09-12T02:21:55.919Z,0
2018-09-12T02:22:36.328Z,0
2018-09-12T02:23:16.720Z,0
2018-09-12T02:23:57.154Z,0
2018-09-12T02:24:37.538Z,0
2018-09-12T02:25:17.955Z,0
2018-09-12T02:25:58.293Z,0
2018-09-12T02:26:38.741Z,0
2018-09-12T02:27:19.103Z,0
2018-09-12T02:28:00.637Z,0
2018-09-12T02:28:40.441Z,0
2018-09-12T02:29:20.821Z,0
2018-09-12T02:30:01.263Z,0
2018-09-12T03:09:33.198Z,0
2018-09-12T03:10:14.380Z,0
2018-09-12T03:10:54.859Z,0
2018-09-12T03:11:35.176Z,0
2018-09-12T03:12:15.629Z,0
2018-09-12T03:12:56.023Z,0
2018-09-12T03:13:36.405Z,0
2018-09-12T03:14:16.791Z,0
2018-09-12T03:14:57.199Z,0
2018-09-12T03:15:37.600Z,0
2018-09-12T03:16:18.001Z,0
2018-09-12T03:16:58.385Z,0
2018-09-12T03:17:38.719Z,0
2018-09-12T03:18:19.177Z,0
2018-09-12T03:18:59.733Z,0
2018-09-12T03:19:40.032Z,0
2018-09-12T03:20:20.396Z,0
2018-09-12T03:21:00.925Z,0
2018-09-12T03:21:41.253Z,0
2018-09-12T03:22:21.674Z,0
2018-09-12T03:23:02.025Z,0
2018-09-12T03:23:42.450Z,0
2018-09-12T03:24:22.850Z,0
2018-09-12T03:25:03.290Z,0
2018-09-12T03:25:43.724Z,0
2018-09-12T03:26:24.024Z,0
2018-09-12T03:27:04.473Z,0
2018-09-12T03:27:44.890Z,0
2018-09-12T03:28:25.316Z,0
2018-09-12T03:29:05.763Z,0
2018-09-12T03:29:46.139Z,0
2018-09-12T03:30:26.564Z,0
2018-09-12T03:31:06.943Z,0
2018-09-12T03:31:47.341Z,0
2018-09-12T03:32:27.734Z,0
2018-09-12T03:33:08.094Z,0
2018-09-12T03:33:48.531Z,0
2018-09-12T03:34:28.983Z,0
2018-09-12T03:35:09.422Z,0
2018-09-12T03:35:49.864Z,0
2018-09-12T03:36:30.268Z,0
2018-09-12T03:37:10.632Z,0
2018-09-12T03:37:51.023Z,0
2018-09-12T03:38:31.455Z,0
2018-09-12T03:39:11.960Z,0
2018-09-12T03:39:52.320Z,0
2018-09-12T03:40:32.771Z,0
2018-09-12T03:41:13.174Z,0
2018-09-12T03:41:53.550Z,0
2018-09-12T03:42:33.940Z,0
2018-09-12T03:45:13.455Z,0
2018-09-12T03:47:38.904Z,0
2018-09-12T03:48:17.969Z,0
2018-09-12T03:48:58.487Z,0
2018-09-12T03:49:38.800Z,0
2018-09-12T03:50:19.367Z,0
2018-09-12T03:50:59.672Z,0
2018-09-12T03:51:39.966Z,0
2018-09-12T03:52:20.469Z,0
2018-09-12T03:53:00.843Z,0
2018-09-12T03:53:41.240Z,0
2018-09-12T03:54:28.850Z,0
2018-09-12T03:55:16.884Z,0
2018-09-12T04:06:55.158Z,0
2018-09-12T04:07:35.491Z,0
2018-09-12T04:08:15.934Z,0
2018-09-12T04:08:56.368Z,0
2018-09-12T04:09:36.853Z,0
2018-09-12T04:10:17.236Z,0
2018-09-12T04:10:57.674Z,0
2018-09-12T04:11:38.264Z,0
2018-09-12T04:12:18.716Z,0
2018-09-12T04:13:07.696Z,0
2018-09-12T04:13:48.119Z,0
2018-09-12T04:14:29.193Z,0
2018-09-12T04:15:09.526Z,0
2018-09-12T04:15:52.623Z,0
2018-09-12T04:16:33.327Z,0
2018-09-12T04:17:14.247Z,0
2018-09-12T04:17:54.631Z,0
2018-09-12T04:18:35.855Z,0
2018-09-12T04:19:16.341Z,0
2018-09-12T04:19:58.598Z,0
2018-09-12T04:20:38.984Z,0
2018-09-12T04:21:19.473Z,0
2018-09-12T04:21:59.908Z,0
2018-09-12T04:22:40.281Z,0
2018-09-12T04:23:20.686Z,0
2018-09-12T04:24:01.817Z,0
2018-09-12T04:24:42.777Z,0
2018-09-12T04:25:23.110Z,0
2018-09-12T04:26:09.176Z,0
2018-09-12T04:26:53.854Z,0
2018-09-12T04:27:35.853Z,0
2018-09-12T05:07:16.794Z,5
2018-09-12T05:07:56.824Z,5
2018-09-12T05:08:37.228Z,5
2018-09-12T05:09:17.627Z,5
2018-09-12T05:09:58.003Z,10
2018-09-12T05:10:38.450Z,10
2018-09-12T05:11:18.830Z,15
2018-09-12T05:11:59.256Z,20
2018-09-12T05:12:39.656Z,20
2018-09-12T05:13:20.132Z,20
2018-09-12T05:14:00.560Z,25
2018-09-12T05:14:41.576Z,25
2018-09-12T05:15:22.040Z,30
2018-09-12T05:16:03.291Z,30
2018-09-12T05:16:43.659Z,35
2018-09-12T05:17:24.717Z,35
2018-09-12T05:18:05.180Z,40
2018-09-12T05:18:45.695Z,45
2018-09-12T05:19:26.272Z,50
2018-09-12T05:20:06.630Z,50
2018-09-12T05:20:47.108Z,55
2018-09-12T05:21:27.920Z,55
2018-09-12T05:22:08.539Z,60
2018-09-12T05:22:48.992Z,60
2018-09-12T05:23:29.464Z,65
2018-09-12T05:24:09.943Z,65
2018-09-12T05:24:50.389Z,70
2018-09-12T05:25:30.925Z,75
2018-09-12T05:26:11.382Z,85
2018-09-12T05:26:51.836Z,85
2018-09-12T05:27:32.221Z,90
2018-09-12T05:28:12.686Z,100
2018-09-12T05:28:53.176Z,100
2018-09-12T05:29:33.608Z,105
2018-09-12T05:30:14.183Z,115
2018-09-12T05:30:54.625Z,115
2018-09-12T05:31:35.042Z,125
2018-09-12T05:32:15.682Z,125
2018-09-12T05:32:56.066Z,135
2018-09-12T05:33:36.588Z,140
2018-09-12T05:34:16.931Z,150
2018-09-12T05:34:57.385Z,150
2018-09-12T05:35:37.745Z,150
2018-09-12T05:36:18.217Z,150
2018-09-12T05:36:58.623Z,150
2018-09-12T05:37:39.050Z,160
2018-09-12T05:38:19.488Z,170
2018-09-12T05:38:59.855Z,180
2018-09-12T05:39:40.269Z,185
2018-09-12T05:40:20.795Z,195
2018-09-12T05:41:01.333Z,205
2018-09-12T05:41:42.704Z,205
2018-09-12T05:42:22.468Z,215
2018-09-12T05:43:03.080Z,220
2018-09-12T05:43:43.499Z,220
2018-09-12T05:44:23.855Z,225
2018-09-12T05:45:04.309Z,230
2018-09-12T05:45:45.738Z,230
2018-09-12T05:46:29.713Z,245
2018-09-12T05:47:17.732Z,255
2018-09-12T05:53:19.938Z,325
2018-09-12T05:54:09.039Z,340
2018-09-12T05:54:49.992Z,345
2018-09-12T05:55:30.895Z,340
2018-09-12T05:56:12.185Z,345
2018-09-12T05:56:52.564Z,360
2018-09-12T05:57:33.894Z,385
2018-09-12T05:58:14.488Z,390
2018-09-12T05:58:56.473Z,400
2018-09-12T05:59:36.965Z,410
2018-09-12T06:00:17.188Z,420
2018-09-12T06:00:59.087Z,420
2018-09-12T06:01:38.731Z,425
2018-09-12T06:02:20.434Z,430
2018-09-12T06:03:00.795Z,445
2018-09-12T06:03:42.907Z,470
2018-09-12T06:04:23.487Z,485
2018-09-12T06:05:04.415Z,495
2018-09-12T06:05:45.676Z,505
2018-09-12T06:06:30.937Z,505
2018-09-12T06:07:09.567Z,500
2018-09-12T06:07:50.491Z,510
2018-09-12T06:08:30.254Z,525
2018-09-12T06:09:11.201Z,540
2018-09-12T06:09:51.678Z,540
2018-09-12T06:10:32.797Z,530
2018-09-12T06:11:13.900Z,535
2018-09-12T06:11:54.479Z,550
2018-09-12T06:12:34.701Z,560
2018-09-12T06:13:15.560Z,575
2018-09-12T06:13:57.002Z,595
2018-09-12T06:14:38.041Z,610
2018-09-12T06:15:18.197Z,610
2018-09-12T06:15:59.406Z,620
2018-09-12T06:16:40.486Z,620
2018-09-12T06:17:21.398Z,645
2018-09-12T06:18:02.402Z,655
2018-09-12T06:18:42.015Z,660
2018-09-12T06:19:22.397Z,670
2018-09-12T06:20:02.863Z,690
2018-09-12T06:20:43.228Z,705
2018-09-12T06:21:23.616Z,700
2018-09-12T06:22:04.087Z,715
2018-09-12T06:22:58.004Z,730
2018-09-12T06:23:46.236Z,745
2018-09-12T06:24:26.689Z,740
2018-09-12T06:25:07.187Z,745
2018-09-12T06:25:47.643Z,775
2018-09-12T06:26:27.983Z,795
2018-09-12T06:27:08.720Z,800
2018-09-12T06:27:49.114Z,805
2018-09-12T06:28:30.682Z,795
2018-09-12T06:29:11.247Z,810
2018-09-12T06:29:51.660Z,835
2018-09-12T06:30:32.142Z,825
2018-09-12T06:31:12.936Z,830
2018-09-12T06:31:53.386Z,840
2018-09-12T06:32:34.747Z,850
2018-09-12T06:33:15.820Z,840
2018-09-12T06:33:56.212Z,825
2018-09-12T06:34:36.624Z,850
2018-09-12T06:35:17.024Z,855
2018-09-12T06:35:57.487Z,860
2018-09-12T06:36:37.842Z,885
2018-09-12T06:37:18.691Z,875
2018-09-12T06:37:59.297Z,850
2018-09-12T06:38:41.603Z,825
2018-09-12T06:39:22.505Z,845
2018-09-12T06:40:03.197Z,840
2018-09-12T06:40:45.408Z,780
2018-09-12T06:41:26.135Z,570
2018-09-12T06:42:06.889Z,365
2018-09-12T06:42:47.510Z,295
2018-09-12T06:43:29.092Z,280
2018-09-12T06:44:09.489Z,270
2018-09-12T06:44:50.431Z,265
2018-09-12T06:45:32.160Z,265
2018-09-12T06:46:12.857Z,260
2018-09-12T06:46:54.001Z,255
2018-09-12T06:47:35.847Z,255
2018-09-12T06:48:15.419Z,250
2018-09-12T06:48:55.935Z,250
2018-09-12T06:49:37.063Z,255
2018-09-12T06:50:17.611Z,255
2018-09-12T06:50:58.417Z,255
2018-09-12T06:51:38.915Z,260
2018-09-12T06:52:19.498Z,260
2018-09-12T06:53:00.218Z,255
2018-09-12T06:53:40.699Z,260
2018-09-12T06:54:21.282Z,255
2018-09-12T06:55:02.589Z,255
2018-09-12T06:55:42.902Z,255
2018-09-12T06:56:23.413Z,255
2018-09-12T06:57:03.732Z,255
2018-09-12T06:57:44.191Z,255
2018-09-12T06:58:24.595Z,255
2018-09-12T06:59:05.039Z,255
2018-09-12T06:59:45.461Z,255
2018-09-12T07:00:26.970Z,255
2018-09-12T07:01:07.425Z,255
2018-09-12T07:01:47.880Z,255
2018-09-12T07:02:28.680Z,250
2018-09-12T07:03:09.546Z,250
2018-09-12T07:03:49.987Z,250
2018-09-12T07:04:31.932Z,250
2018-09-12T07:05:11.999Z,250
2018-09-12T07:05:52.518Z,250
2018-09-12T07:06:33.436Z,250
2018-09-12T07:07:13.708Z,250
2018-09-12T07:07:54.181Z,255
2018-09-12T07:08:35.876Z,250
2018-09-12T07:09:16.737Z,255
2018-09-12T07:09:57.323Z,255
2018-09-12T07:10:37.880Z,255
2018-09-12T07:11:18.268Z,255
2018-09-12T07:11:58.712Z,255
2018-09-12T07:12:39.360Z,260
2018-09-12T07:13:19.925Z,265
2018-09-12T07:14:02.184Z,260
2018-09-12T07:14:42.734Z,260
2018-09-12T07:15:23.172Z,255
2018-09-12T07:16:03.577Z,255
2018-09-12T07:16:45.520Z,255
2018-09-12T07:17:26.578Z,250
2018-09-12T07:18:06.475Z,240
2018-09-12T07:18:47.216Z,230
2018-09-12T07:19:30.130Z,225
2018-09-12T07:20:10.431Z,220
2018-09-12T07:20:50.801Z,220
2018-09-12T07:21:31.884Z,215
2018-09-12T07:22:12.384Z,210
2018-09-12T07:22:52.937Z,200
2018-09-12T07:23:35.051Z,195
2018-09-12T07:24:17.097Z,200
2018-09-12T07:24:58.600Z,190
2018-09-12T07:25:38.552Z,185
2018-09-12T07:26:19.178Z,175
2018-09-12T07:27:00.727Z,165
2018-09-12T07:27:40.597Z,165
2018-09-12T07:28:20.944Z,155
2018-09-12T07:29:01.437Z,150
2018-09-12T07:29:41.813Z,145
2018-09-12T07:30:22.297Z,140
2018-09-12T07:31:02.784Z,140
2018-09-12T07:31:43.269Z,135
2018-09-12T07:32:23.721Z,135
2018-09-12T07:33:04.173Z,130
2018-09-12T07:33:44.570Z,130
2018-09-12T07:34:25.346Z,125
2018-09-12T07:35:05.755Z,125
2018-09-12T07:35:46.289Z,125
2018-09-12T07:36:27.052Z,120
2018-09-12T07:37:07.412Z,120
2018-09-12T07:37:49.908Z,120
2018-09-12T07:38:31.471Z,120
2018-09-12T07:39:12.006Z,120
2018-09-12T07:39:52.624Z,120
2018-09-12T07:40:34.100Z,115
2018-09-12T07:41:21.792Z,115
2018-09-12T07:42:06.283Z,110
2018-09-12T07:42:46.606Z,110
2018-09-12T07:43:29.432Z,110
2018-09-12T07:44:12.180Z,110
2018-09-12T07:44:52.934Z,105
2018-09-12T07:45:33.214Z,105
2018-09-12T07:46:13.809Z,105
2018-09-12T07:46:54.233Z,105
2018-09-12T07:47:45.341Z,100
2018-09-12T07:48:25.898Z,100
2018-09-12T07:49:06.832Z,100
2018-09-12T07:49:47.707Z,100
2018-09-12T07:50:28.177Z,100
2018-09-12T07:51:11.087Z,95
2018-09-12T07:51:53.937Z,95
2018-09-12T07:54:57.448Z,90
2018-09-12T07:55:57.617Z,90
2018-09-12T07:56:57.433Z,90
2018-09-12T07:57:54.824Z,90
2018-09-12T07:58:56.455Z,90
2018-09-12T07:59:50.022Z,90
2018-09-12T08:00:50.140Z,85
2018-09-12T08:06:05.708Z,85
2018-09-12T08:10:45.645Z,85
2018-09-12T08:11:26.415Z,80
2018-09-12T08:12:07.477Z,80
2018-09-12T08:12:47.974Z,80
2018-09-12T08:13:28.471Z,80
2018-09-12T08:14:09.323Z,80
2018-09-12T08:14:50.012Z,80
2018-09-12T08:15:30.550Z,80
2018-09-12T08:16:10.921Z,80
2018-09-12T08:16:51.517Z,80
2018-09-12T08:17:33.263Z,80
2018-09-12T08:18:13.892Z,80
2018-09-12T08:18:54.401Z,80
2018-09-12T08:19:34.968Z,80
2018-09-12T08:20:15.388Z,80
2018-09-12T08:20:56.705Z,80
2018-09-12T08:21:37.853Z,80
2018-09-12T08:22:18.411Z,80
2018-09-12T08:22:58.866Z,80
2018-09-12T08:23:39.249Z,80
2018-09-12T08:24:19.692Z,80
2018-09-12T08:25:00.287Z,80
2018-09-12T08:25:40.878Z,80
2018-09-12T08:26:21.276Z,80
2018-09-12T08:27:01.828Z,80
2018-09-12T08:27:44.586Z,80
2018-09-12T08:28:24.887Z,80
2018-09-12T08:29:05.907Z,80
2018-09-12T08:29:46.428Z,80
2018-09-12T08:30:26.897Z,80
2018-09-12T08:31:08.713Z,80
2018-09-12T08:31:47.907Z,80
2018-09-12T08:32:29.131Z,80
2018-09-12T08:33:10.691Z,80
2018-09-12T08:33:51.263Z,75
2018-09-12T08:34:32.243Z,80
2018-09-12T08:35:12.949Z,75
2018-09-12T08:35:54.195Z,75
2018-09-12T08:36:35.753Z,75
2018-09-12T08:37:16.187Z,75
2018-09-12T08:37:56.914Z,75
2018-09-12T08:38:37.497Z,75
2018-09-12T08:39:17.945Z,75
2018-09-12T08:39:58.261Z,75
2018-09-12T08:40:38.639Z,75
2018-09-12T08:41:19.053Z,75
2018-09-12T08:41:59.454Z,75
2018-09-12T08:42:40.885Z,75
2018-09-12T08:43:21.706Z,75
2018-09-12T08:44:02.144Z,75
2018-09-12T08:44:42.806Z,75
2018-09-12T08:45:23.647Z,75
2018-09-12T08:46:04.265Z,75
2018-09-12T08:46:44.935Z,75
2018-09-12T08:47:25.506Z,75
2018-09-12T08:48:05.953Z,75
2018-09-12T08:48:46.287Z,75
2018-09-12T08:49:26.808Z,75
2018-09-12T08:50:07.339Z,75
2018-09-12T08:50:48.034Z,75
2018-09-12T08:51:28.504Z,75
2018-09-12T08:52:08.936Z,75
2018-09-12T08:52:49.498Z,75
2018-09-12T08:53:29.997Z,75
2018-09-12T08:54:10.556Z,75
2018-09-12T08:54:50.947Z,75
2018-09-12T08:55:31.404Z,75
2018-09-12T08:56:11.830Z,75
2018-09-12T08:56:52.339Z,75
2018-09-12T08:57:32.709Z,75
2018-09-12T08:58:13.148Z,75
2018-09-12T08:58:55.308Z,75
2018-09-12T08:59:35.331Z,75
2018-09-12T09:00:16.440Z,75
2018-09-12T09:01:00.789Z,75
2018-09-12T09:01:41.017Z,75
2018-09-12T09:02:22.271Z,75
2018-09-12T09:03:02.915Z,75
2018-09-12T09:03:43.510Z,70
2018-09-12T09:04:26.203Z,75
2018-09-12T09:05:06.108Z,75
2018-09-12T09:05:47.791Z,70
2018-09-12T09:06:27.553Z,70
2018-09-12T09:07:08.718Z,70
2018-09-12T09:07:49.244Z,70
2018-09-12T09:08:30.415Z,70
2018-09-12T09:09:11.819Z,70
2018-09-12T09:09:52.611Z,70
2018-09-12T09:10:34.875Z,70
2018-09-12T09:11:14.903Z,70
2018-09-12T09:11:55.589Z,70
2018-09-12T09:19:35.411Z,70
2018-09-12T09:20:15.793Z,75
2018-09-12T09:20:56.241Z,75
2018-09-12T09:21:37.131Z,70
2018-09-12T09:22:17.835Z,70
2018-09-12T09:22:58.675Z,45
2018-09-12T09:23:39.581Z,75
2018-09-12T09:24:19.983Z,75
2018-09-12T09:25:03.893Z,75
2018-09-12T09:25:43.029Z,75
2018-09-12T09:26:24.378Z,75
2018-09-12T09:27:05.144Z,75
2018-09-12T09:27:46.082Z,75
2018-09-12T09:28:26.688Z,75
2018-09-12T09:29:06.991Z,75
2018-09-12T09:29:48.646Z,75
2018-09-12T09:30:28.682Z,75
2018-09-12T09:31:10.455Z,75
2018-09-12T09:31:51.072Z,75
2018-09-12T09:32:34.287Z,75
2018-09-12T09:33:19.270Z,75
2018-09-12T09:33:58.234Z,75
2018-09-12T09:34:39.476Z,75
2018-09-12T09:35:20.242Z,80
2018-09-12T09:36:02.744Z,80
2018-09-12T09:36:45.785Z,80
2018-09-12T09:37:29.872Z,70
2018-09-12T09:38:10.614Z,80
2018-09-12T09:38:51.513Z,80
2018-09-12T09:41:35.630Z,50
2018-09-12T09:42:17.515Z,80
2018-09-12T09:42:57.967Z,80
2018-09-12T09:43:39.030Z,80
2018-09-12T09:44:20.707Z,55
2018-09-12T09:45:01.485Z,55
2018-09-12T09:45:42.271Z,50
2018-09-12T09:46:23.810Z,50
2018-09-12T09:47:05.628Z,50
2018-09-12T09:47:45.880Z,50
2018-09-12T09:48:26.569Z,80
2018-09-12T09:49:07.346Z,55
2018-09-12T09:49:48.025Z,50
2018-09-12T09:50:29.603Z,45
2018-09-12T09:51:10.128Z,45
2018-09-12T09:51:51.221Z,45
2018-09-12T09:52:33.254Z,50
2018-09-12T09:53:14.461Z,50
2018-09-12T09:53:57.176Z,50
2018-09-12T09:54:37.635Z,55
2018-09-12T09:55:19.160Z,65
2018-09-12T09:55:59.820Z,50
2018-09-12T09:56:40.947Z,50
2018-09-12T09:57:21.429Z,50
2018-09-12T09:58:02.099Z,50
2018-09-12T09:58:42.765Z,50
2018-09-12T09:59:23.537Z,50
2018-09-12T10:00:05.414Z,50
2018-09-12T10:00:46.312Z,80
2018-09-12T10:01:30.260Z,50
2018-09-12T10:02:15.206Z,50
2018-09-12T10:02:56.158Z,50
2018-09-12T10:03:38.893Z,50
2018-09-12T10:04:21.360Z,75
2018-09-12T10:05:05.471Z,45
2018-09-12T10:05:47.589Z,45
2018-09-12T10:06:29.075Z,75
2018-09-12T10:07:11.109Z,75
2018-09-12T10:07:55.708Z,80
2018-09-12T10:08:42.034Z,80
2018-09-12T10:09:28.636Z,65
2018-09-12T10:13:43.975Z,85
2018-09-12T10:18:28.424Z,85
2018-09-12T10:19:08.900Z,85
2018-09-12T10:19:49.693Z,90
2018-09-12T10:20:31.118Z,85
2018-09-12T10:21:11.864Z,85
2018-09-12T10:21:55.009Z,85
2018-09-12T10:22:57.170Z,80
2018-09-12T10:23:39.501Z,80
2018-09-12T10:24:25.337Z,75
2018-09-12T10:27:08.602Z,75
2018-09-12T10:27:51.883Z,75
2018-09-12T10:28:32.029Z,75
2018-09-12T10:29:13.691Z,75
2018-09-12T11:11:52.506Z,50
2018-09-12T11:14:47.513Z,70
2018-09-12T11:15:43.441Z,55
2018-09-12T11:16:55.645Z,45
2018-09-12T11:17:54.051Z,70
2018-09-12T11:18:50.403Z,60
2018-09-12T11:19:55.510Z,65
2018-09-12T11:20:56.637Z,65
2018-09-12T11:21:57.618Z,65
2018-09-12T11:24:12.636Z,65
2018-09-12T11:24:56.652Z,60
2018-09-12T11:25:36.628Z,45
2018-09-12T11:26:17.927Z,40
2018-09-12T11:26:58.602Z,65
2018-09-12T11:27:39.326Z,40
2018-09-12T11:33:30.906Z,55
2018-09-12T11:34:12.850Z,60
2018-09-12T11:34:53.325Z,65
2018-09-12T11:35:34.211Z,60
2018-09-12T11:36:15.479Z,55
2018-09-12T11:36:56.429Z,40
2018-09-12T11:37:37.081Z,35
2018-09-12T11:38:17.808Z,35
2018-09-12T11:38:58.391Z,40
2018-09-12T11:39:38.759Z,50
2018-09-12T11:40:19.231Z,60
2018-09-12T11:40:59.655Z,60
2018-09-12T11:41:40.061Z,60
2018-09-12T11:42:20.725Z,60
2018-09-12T11:43:01.263Z,60
2018-09-12T11:43:42.727Z,60
2018-09-12T11:44:23.408Z,60
2018-09-12T11:45:03.595Z,60
2018-09-12T11:45:44.121Z,60
2018-09-12T11:46:24.750Z,60
2018-09-12T11:47:05.331Z,60
2018-09-12T11:47:45.749Z,60
2018-09-12T11:48:26.257Z,60
2018-09-12T11:49:06.732Z,60
2018-09-12T11:49:47.700Z,60
2018-09-12T11:50:28.459Z,60
2018-09-12T11:51:08.880Z,60
2018-09-12T11:51:49.325Z,60
2018-09-12T11:52:29.898Z,60
2018-09-12T11:53:10.327Z,60
2018-09-12T11:53:50.748Z,60
2018-09-12T11:54:31.183Z,60
2018-09-12T11:55:12.192Z,60
2018-09-12T11:55:52.139Z,60
2018-09-12T11:56:32.570Z,60
2018-09-12T11:57:13.422Z,60
2018-09-12T11:57:54.308Z,65
2018-09-12T11:58:36.482Z,65
2018-09-12T11:59:20.804Z,65
2018-09-12T12:00:01.349Z,65
2018-09-12T12:00:41.904Z,65
2018-09-12T12:01:22.866Z,65
2018-09-12T12:02:03.486Z,65
2018-09-12T12:02:44.502Z,65
2018-09-12T12:03:24.676Z,65
2018-09-12T12:04:06.820Z,65
2018-09-12T12:04:49.016Z,65
2018-09-12T12:05:30.338Z,65
2018-09-12T12:06:14.934Z,65
2018-09-12T12:06:56.272Z,65
2018-09-12T12:07:38.678Z,40
2018-09-12T12:08:22.016Z,60
2018-09-12T12:09:02.031Z,65
2018-09-12T12:09:42.376Z,65
2018-09-12T12:10:22.788Z,65
2018-09-12T12:11:03.215Z,65
2018-09-12T12:11:43.790Z,65
2018-09-12T12:12:24.112Z,60
2018-09-12T12:13:05.487Z,55
2018-09-12T12:13:49.328Z,55
2018-09-12T12:14:29.908Z,55
2018-09-12T12:15:10.603Z,45
2018-09-12T12:15:51.487Z,40
2018-09-12T12:16:32.011Z,50
2018-09-12T12:17:12.382Z,50
2018-09-12T12:17:53.213Z,50
2018-09-12T12:21:39.113Z,45
2018-09-12T12:22:20.291Z,45
2018-09-12T12:23:03.812Z,60
2018-09-12T12:23:44.180Z,55
2018-09-12T12:24:26.241Z,65
2018-09-12T12:25:06.270Z,60
2018-09-12T12:25:48.147Z,55
2018-09-12T12:26:28.880Z,60
2018-09-12T12:27:10.208Z,60
2018-09-12T12:27:51.941Z,60
2018-09-12T12:28:33.139Z,60
2018-09-12T12:29:14.814Z,60
2018-09-12T12:29:55.213Z,50
2018-09-12T12:32:39.008Z,35
2018-09-12T12:33:35.077Z,35
2018-09-12T12:34:28.281Z,35
2018-09-12T12:35:21.375Z,35
2018-09-12T12:36:15.502Z,35
2018-09-12T12:37:09.213Z,35
2018-09-12T12:38:00.760Z,35
2018-09-12T12:38:54.943Z,60
2018-09-12T12:39:50.342Z,60
2018-09-12T12:40:42.868Z,60
2018-09-12T12:41:39.071Z,60
2018-09-12T12:42:34.910Z,65
2018-09-12T12:43:33.481Z,65
2018-09-12T12:44:26.693Z,70
2018-09-12T12:45:25.750Z,65
2018-09-12T17:11:57.604Z,5
2018-09-12T17:12:38.454Z,5
2018-09-12T17:13:19.122Z,5
2018-09-12T17:14:00.354Z,0
2018-09-12T17:14:40.993Z,0
2018-09-12T17:15:21.444Z,0
2018-09-12T17:16:01.906Z,0
2018-09-12T17:16:42.414Z,0
2018-09-12T17:17:23.531Z,0
2018-09-12T17:18:03.727Z,0
2018-09-12T17:18:44.134Z,0
2018-09-12T17:19:24.536Z,0
2018-09-12T17:36:44.824Z,0
2018-09-12T17:39:26.281Z,0
2018-09-12T17:40:06.687Z,0
2018-09-12T17:40:47.090Z,0
2018-09-12T17:41:27.854Z,0
2018-09-12T17:42:11.047Z,0
2018-09-12T17:42:54.455Z,0
2018-09-12T17:43:34.995Z,0
2018-09-12T17:44:15.418Z,0
2018-09-12T17:44:56.709Z,0
2018-09-12T17:45:37.115Z,0
2018-09-12T17:46:17.587Z,0
2018-09-12T17:46:58.091Z,0
2018-09-12T17:47:38.900Z,0
2018-09-12T17:48:19.939Z,0
2018-09-12T17:49:00.375Z,0
2018-09-12T17:49:41.098Z,0
2018-09-12T17:50:21.586Z,0
2018-09-12T17:51:02.120Z,0
2018-09-12T17:55:36.726Z,0
2018-09-12T17:56:17.080Z,0
2018-09-12T17:56:57.536Z,0
2018-09-12T17:57:37.900Z,0
2018-09-12T17:58:18.384Z,0
2018-09-12T17:58:58.806Z,0
2018-09-12T17:59:40.001Z,0
2018-09-12T18:00:20.593Z,0
2018-09-12T18:01:01.386Z,0
2018-09-12T18:01:41.785Z,0
2018-09-12T18:02:22.530Z,0
2018-09-12T18:03:03.228Z,0
2018-09-12T18:03:43.570Z,0
2018-09-12T18:04:23.975Z,0
2018-09-12T18:05:04.547Z,0
2018-09-12T18:05:45.133Z,0
2018-09-12T18:06:25.456Z,0
2018-09-12T18:07:05.854Z,0
2018-09-12T18:07:46.262Z,0
2018-09-12T18:08:26.671Z,0
2018-09-12T18:09:07.244Z,0
2018-09-12T18:09:47.575Z,0
2018-09-12T18:10:28.108Z,0
2018-09-12T18:11:08.551Z,0
2018-09-12T18:11:49.297Z,0
2018-09-12T18:12:30.056Z,0
2018-09-12T18:13:10.397Z,0
2018-09-12T18:13:51.360Z,0
2018-09-12T18:14:31.675Z,0
2018-09-12T18:15:12.110Z,0
2018-09-12T18:15:52.513Z,0
2018-09-12T18:16:32.930Z,0
2018-09-12T18:17:13.312Z,0
2018-09-12T18:17:53.789Z,0
2018-09-12T18:18:34.189Z,0
2018-09-12T18:19:14.630Z,0
2018-09-12T18:19:55.125Z,0
2018-09-12T18:20:36.135Z,0
2018-09-12T18:21:16.649Z,0
2018-09-12T18:21:57.330Z,0
2018-09-12T18:22:37.790Z,0
2018-09-12T18:23:19.050Z,0
2018-09-12T18:23:59.383Z,0
2018-09-12T18:24:40.031Z,0
2018-09-12T18:25:20.410Z,0
2018-09-12T18:26:00.910Z,0
2018-09-12T18:26:42.036Z,0
2018-09-12T18:27:22.888Z,0
2018-09-12T18:28:03.304Z,0
2018-09-12T18:28:45.727Z,0
2018-09-12T18:29:26.110Z,0
2018-09-12T18:30:06.539Z,0
2018-09-12T18:30:47.139Z,0